createdAt,value
2018-08-17T00:00:17.032Z,70.8
2018-08-17T00:01:17.088Z,70.9
2018-08-17T00:02:16.353Z,71.0
2018-08-17T00:03:16.617Z,71.3
2018-08-17T00:04:16.874Z,71.5
2018-08-17T00:05:17.353Z,71.5
2018-08-17T00:06:16.705Z,71.8
2018-08-17T00:07:16.975Z,71.7
2018-08-17T00:08:17.248Z,72.0
2018-08-17T00:09:16.519Z,72.1
2018-08-17T00:10:16.791Z,72.0
2018-08-17T00:11:16.825Z,72.2
2018-08-17T00:12:17.109Z,71.9
2018-08-17T00:13:16.379Z,72.1
2018-08-17T00:14:16.648Z,72.0
2018-08-17T00:15:16.920Z,72.5
2018-08-17T00:16:17.208Z,72.6
2018-08-17T00:17:16.469Z,72.5
2018-08-17T00:18:16.738Z,72.7
2018-08-17T00:19:17.017Z,73.0
2018-08-17T00:20:16.296Z,73.1
2018-08-17T00:21:16.338Z,73.7
2018-08-17T00:22:16.605Z,73.8
2018-08-17T00:23:16.862Z,73.8
2018-08-17T00:24:17.130Z,73.9
2018-08-17T00:25:16.405Z,73.7
2018-08-17T00:26:16.673Z,73.8
2018-08-17T00:27:16.940Z,73.8
2018-08-17T00:28:17.204Z,73.8
2018-08-17T00:29:16.480Z,73.9
2018-08-17T00:30:16.766Z,73.8
2018-08-17T00:31:16.798Z,73.8
2018-08-17T00:32:17.082Z,73.8
2018-08-17T00:33:16.357Z,73.8
2018-08-17T00:34:16.634Z,73.8
2018-08-17T00:35:16.903Z,73.8
2018-08-17T00:36:17.189Z,73.9
2018-08-17T00:37:16.454Z,73.9
2018-08-17T00:38:16.735Z,73.9
2018-08-17T00:39:16.999Z,73.8
2018-08-17T00:40:16.272Z,73.9
2018-08-17T00:41:16.305Z,73.8
2018-08-17T00:42:16.842Z,73.8
2018-08-17T00:43:17.117Z,73.9
2018-08-17T00:44:16.379Z,73.8
2018-08-17T00:45:16.649Z,73.8
2018-08-17T00:46:16.928Z,73.8
2018-08-17T00:47:17.198Z,73.8
2018-08-17T00:48:16.481Z,73.9
2018-08-17T00:49:16.748Z,74.1
2018-08-17T00:50:17.022Z,74.1
2018-08-17T00:51:17.068Z,73.9
2018-08-17T00:52:16.336Z,74.0
2018-08-17T00:53:16.609Z,74.1
2018-08-17T00:54:16.884Z,74.1
2018-08-17T00:55:17.147Z,74.2
2018-08-17T00:56:16.408Z,74.3
2018-08-17T00:57:16.677Z,74.6
2018-08-17T00:58:16.937Z,74.7
2018-08-17T00:59:17.203Z,74.9
2018-08-17T01:00:16.489Z,74.7
2018-08-17T01:01:16.549Z,74.8
2018-08-17T01:02:16.819Z,75.0
2018-08-17T01:03:17.085Z,75.0
2018-08-17T01:04:16.370Z,75.0
2018-08-17T01:05:16.636Z,75.2
2018-08-17T01:06:16.893Z,74.9
2018-08-17T01:07:17.180Z,74.8
2018-08-17T01:08:16.454Z,74.7
2018-08-17T01:09:16.733Z,74.7
2018-08-17T01:10:16.999Z,74.7
2018-08-17T01:11:17.047Z,74.9
2018-08-17T01:12:16.334Z,75.1
2018-08-17T01:13:16.618Z,75.1
2018-08-17T01:14:16.884Z,75.2
2018-08-17T01:15:17.174Z,75.0
2018-08-17T01:16:16.443Z,74.9
2018-08-17T01:17:16.717Z,75.0
2018-08-17T01:18:16.992Z,75.5
2018-08-17T01:19:16.265Z,75.6
2018-08-17T01:20:16.557Z,75.7
2018-08-17T01:21:16.609Z,76.0
2018-08-17T01:22:16.879Z,75.3
2018-08-17T01:23:17.145Z,75.8
2018-08-17T01:24:16.427Z,75.5
2018-08-17T01:25:16.697Z,75.5
2018-08-17T01:26:16.972Z,75.3
2018-08-17T01:27:17.289Z,75.0
2018-08-17T01:28:16.557Z,75.3
2018-08-17T01:29:16.831Z,75.8
2018-08-17T01:30:17.104Z,75.7
2018-08-17T01:31:17.164Z,76.0
2018-08-17T01:32:16.436Z,76.2
2018-08-17T01:33:16.721Z,76.4
2018-08-17T01:34:16.993Z,75.8
2018-08-17T01:35:16.263Z,75.7
2018-08-17T01:36:16.528Z,75.9
2018-08-17T01:37:16.810Z,76.2
2018-08-17T01:38:17.082Z,75.8
2018-08-17T01:39:16.350Z,75.8
2018-08-17T01:40:16.620Z,76.5
2018-08-17T01:41:16.684Z,77.0
2018-08-17T01:42:16.951Z,77.1
2018-08-17T01:43:17.215Z,77.1
2018-08-17T01:44:16.479Z,76.9
2018-08-17T01:45:16.763Z,76.9
2018-08-17T01:46:17.036Z,77.1
2018-08-17T01:47:16.307Z,76.7
2018-08-17T01:48:16.585Z,76.2
2018-08-17T01:49:16.856Z,75.8
2018-08-17T01:50:17.141Z,75.8
2018-08-17T01:51:17.187Z,76.2
2018-08-17T01:52:16.454Z,76.3
2018-08-17T01:53:16.727Z,76.5
2018-08-17T01:54:16.994Z,76.3
2018-08-17T01:55:16.261Z,76.2
2018-08-17T01:56:16.536Z,76.1
2018-08-17T01:57:16.801Z,76.3
2018-08-17T01:58:17.073Z,76.3
2018-08-17T01:59:16.348Z,76.4
2018-08-17T02:00:16.627Z,76.6
2018-08-17T02:01:16.677Z,76.6
2018-08-17T02:02:16.944Z,76.7
2018-08-17T02:03:17.206Z,76.9
2018-08-17T02:04:16.476Z,76.9
2018-08-17T02:05:16.743Z,76.9
2018-08-17T02:06:17.023Z,77.4
2018-08-17T02:07:16.305Z,77.8
2018-08-17T02:08:16.571Z,78.1
2018-08-17T02:09:16.852Z,77.9
2018-08-17T02:10:17.139Z,77.8
2018-08-17T02:11:17.180Z,77.8
2018-08-17T02:12:16.446Z,77.8
2018-08-17T02:13:16.717Z,77.8
2018-08-17T02:14:16.993Z,77.7
2018-08-17T02:15:16.280Z,78.1
2018-08-17T02:16:16.555Z,78.2
2018-08-17T02:17:16.843Z,78.1
2018-08-17T02:18:17.120Z,78.3
2018-08-17T02:19:16.395Z,78.2
2018-08-17T02:20:16.666Z,78.2
2018-08-17T02:21:16.720Z,78.3
2018-08-17T02:22:17.032Z,78.3
2018-08-17T02:23:16.302Z,78.1
2018-08-17T02:24:16.667Z,78.2
2018-08-17T02:25:16.947Z,78.2
2018-08-17T02:26:17.222Z,78.2
2018-08-17T02:27:16.495Z,78.4
2018-08-17T02:28:16.767Z,78.2
2018-08-17T02:29:17.034Z,78.2
2018-08-17T02:30:16.313Z,78.6
2018-08-17T02:31:16.363Z,78.7
2018-08-17T02:32:16.639Z,79.8
2018-08-17T02:33:16.915Z,79.8
2018-08-17T02:34:17.189Z,79.5
2018-08-17T02:35:16.464Z,79.8
2018-08-17T02:36:16.736Z,79.7
2018-08-17T02:37:17.007Z,79.7
2018-08-17T02:38:16.344Z,79.9
2018-08-17T02:39:16.630Z,80.0
2018-08-17T02:40:16.903Z,79.8
2018-08-17T02:41:16.945Z,80.0
2018-08-17T02:42:17.630Z,80.1
2018-08-17T02:43:16.908Z,80.2
2018-08-17T02:44:17.188Z,80.1
2018-08-17T02:45:16.473Z,80.0
2018-08-17T02:46:16.737Z,79.9
2018-08-17T02:47:17.014Z,79.9
2018-08-17T02:48:16.294Z,79.8
2018-08-17T02:49:16.565Z,80.0
2018-08-17T02:50:16.849Z,79.8
2018-08-17T02:51:16.871Z,79.8
2018-08-17T02:52:17.142Z,79.6
2018-08-17T02:53:16.422Z,79.8
2018-08-17T02:54:16.700Z,79.8
2018-08-17T02:55:16.974Z,79.7
2018-08-17T02:56:17.233Z,79.8
2018-08-17T02:57:16.516Z,79.8
2018-08-17T02:58:17.048Z,80.1
2018-08-17T02:59:16.317Z,80.0
2018-08-17T03:00:16.601Z,80.0
2018-08-17T03:01:16.638Z,79.8
2018-08-17T03:02:16.910Z,79.8
2018-08-17T03:03:17.486Z,79.7
2018-08-17T03:04:16.772Z,79.7
2018-08-17T03:05:17.048Z,79.8
2018-08-17T03:06:16.319Z,79.6
2018-08-17T03:07:16.595Z,80.2
2018-08-17T03:08:16.873Z,80.2
2018-08-17T03:09:17.176Z,80.2
2018-08-17T03:10:16.459Z,80.3
2018-08-17T03:11:16.505Z,80.4
2018-08-17T03:12:16.791Z,80.3
2018-08-17T03:13:17.073Z,80.3
2018-08-17T03:14:16.354Z,80.2
2018-08-17T03:15:16.630Z,79.8
2018-08-17T03:16:16.907Z,80.2
2018-08-17T03:17:17.174Z,80.2
2018-08-17T03:18:16.439Z,80.3
2018-08-17T03:19:16.707Z,80.5
2018-08-17T03:20:16.978Z,80.5
2018-08-17T03:21:17.048Z,80.5
2018-08-17T03:22:16.317Z,80.6
2018-08-17T03:23:16.583Z,80.7
2018-08-17T03:24:16.848Z,80.7
2018-08-17T03:25:17.126Z,80.8
2018-08-17T03:26:16.397Z,80.7
2018-08-17T03:27:16.671Z,80.4
2018-08-17T03:28:16.946Z,80.3
2018-08-17T03:29:17.516Z,80.2
2018-08-17T03:30:16.799Z,80.0
2018-08-17T03:31:16.860Z,79.9
2018-08-17T03:32:17.160Z,79.9
2018-08-17T03:33:16.422Z,79.9
2018-08-17T03:34:16.690Z,79.9
2018-08-17T03:35:16.972Z,80.0
2018-08-17T03:36:17.244Z,80.3
2018-08-17T03:37:16.702Z,80.4
2018-08-17T03:38:17.045Z,80.1
2018-08-17T03:39:16.312Z,80.2
2018-08-17T03:40:16.651Z,80.0
2018-08-17T03:41:16.625Z,80.5
2018-08-17T03:42:16.891Z,80.5
2018-08-17T03:43:17.165Z,80.2
2018-08-17T03:44:16.438Z,80.1
2018-08-17T03:45:16.700Z,80.2
2018-08-17T03:46:16.965Z,79.8
2018-08-17T03:47:17.234Z,79.7
2018-08-17T03:48:16.509Z,80.3
2018-08-17T03:49:16.784Z,80.4
2018-08-17T03:50:17.071Z,80.5
2018-08-17T03:51:17.103Z,80.6
2018-08-17T03:52:16.382Z,80.6
2018-08-17T03:53:16.655Z,80.7
2018-08-17T03:54:16.891Z,80.9
2018-08-17T03:55:17.436Z,80.8
2018-08-17T03:56:16.706Z,80.9
2018-08-17T03:57:16.991Z,81.3
2018-08-17T03:58:16.260Z,81.2
2018-08-17T03:59:16.584Z,81.0
2018-08-17T04:00:16.862Z,81.0
2018-08-17T04:01:16.908Z,81.0
2018-08-17T04:02:17.186Z,80.9
2018-08-17T04:03:16.452Z,80.8
2018-08-17T04:04:16.711Z,81.2
2018-08-17T04:05:16.980Z,81.0
2018-08-17T04:06:17.254Z,80.8
2018-08-17T04:07:16.529Z,80.8
2018-08-17T04:08:16.802Z,80.8
2018-08-17T04:09:17.071Z,80.8
2018-08-17T04:10:16.365Z,80.8
2018-08-17T04:11:16.397Z,81.2
2018-08-17T04:12:16.669Z,81.2
2018-08-17T04:13:16.944Z,81.3
2018-08-17T04:14:17.224Z,81.5
2018-08-17T04:15:16.503Z,81.4
2018-08-17T04:16:16.765Z,81.2
2018-08-17T04:17:17.033Z,81.2
2018-08-17T04:18:16.308Z,81.1
2018-08-17T04:19:16.582Z,81.2
2018-08-17T04:20:16.846Z,81.2
2018-08-17T04:21:16.955Z,81.2
2018-08-17T04:22:17.226Z,81.2
2018-08-17T04:23:16.509Z,81.1
2018-08-17T04:24:16.771Z,81.2
2018-08-17T04:25:17.065Z,81.1
2018-08-17T04:26:16.336Z,81.0
2018-08-17T04:27:16.611Z,81.0
2018-08-17T04:28:16.879Z,81.1
2018-08-17T04:29:17.145Z,81.1
2018-08-17T04:30:16.432Z,81.2
2018-08-17T04:31:16.467Z,81.1
2018-08-17T04:32:16.740Z,81.2
2018-08-17T04:33:17.013Z,81.1
2018-08-17T04:34:16.284Z,81.0
2018-08-17T04:35:16.610Z,81.2
2018-08-17T04:36:16.946Z,81.2
2018-08-17T04:37:17.224Z,81.2
2018-08-17T04:38:16.490Z,81.1
2018-08-17T04:39:16.756Z,81.0
2018-08-17T04:40:17.221Z,80.9
2018-08-17T04:41:17.066Z,80.8
2018-08-17T04:42:16.324Z,80.8
2018-08-17T04:43:16.593Z,80.7
2018-08-17T04:44:16.869Z,80.7
2018-08-17T04:45:17.139Z,80.8
2018-08-17T04:46:16.408Z,80.3
2018-08-17T04:47:16.684Z,80.3
2018-08-17T04:48:16.948Z,80.2
2018-08-17T04:49:17.391Z,80.0
2018-08-17T04:50:16.733Z,79.8
2018-08-17T04:51:16.798Z,79.5
2018-08-17T04:52:17.076Z,79.3
2018-08-17T04:53:16.346Z,79.1
2018-08-17T04:54:16.612Z,78.7
2018-08-17T04:55:16.878Z,78.7
2018-08-17T04:56:17.149Z,78.7
2018-08-17T04:57:16.421Z,78.3
2018-08-17T04:58:16.687Z,78.7
2018-08-17T04:59:16.951Z,78.4
2018-08-17T05:00:17.541Z,78.0
2018-08-17T05:01:16.276Z,77.8
2018-08-17T05:02:16.546Z,77.7
2018-08-17T05:03:16.908Z,77.5
2018-08-17T05:04:17.184Z,77.3
2018-08-17T05:05:16.453Z,77.5
2018-08-17T05:06:17.004Z,77.7
2018-08-17T05:07:16.263Z,77.5
2018-08-17T05:08:16.531Z,77.5
2018-08-17T05:09:16.802Z,77.4
2018-08-17T05:10:17.089Z,77.5
2018-08-17T05:11:17.147Z,77.4
2018-08-17T05:12:16.422Z,77.3
2018-08-17T05:13:16.691Z,77.2
2018-08-17T05:14:16.962Z,76.8
2018-08-17T05:15:17.230Z,76.7
2018-08-17T05:16:16.488Z,76.7
2018-08-17T05:17:16.761Z,76.6
2018-08-17T05:18:17.035Z,76.3
2018-08-17T05:19:16.304Z,76.7
2018-08-17T05:20:16.591Z,76.4
2018-08-17T05:21:16.633Z,76.6
2018-08-17T05:22:16.891Z,76.2
2018-08-17T05:23:17.299Z,76.1
2018-08-17T05:24:16.646Z,76.2
2018-08-17T05:25:16.929Z,75.5
2018-08-17T05:26:17.224Z,75.2
2018-08-17T05:27:16.492Z,75.7
2018-08-17T05:28:16.756Z,75.6
2018-08-17T05:29:17.016Z,75.1
2018-08-17T05:30:16.301Z,75.0
2018-08-17T05:31:16.337Z,74.7
2018-08-17T05:32:16.607Z,74.8
2018-08-17T05:33:16.875Z,74.6
2018-08-17T05:34:17.147Z,74.4
2018-08-17T05:35:16.435Z,74.2
2018-08-17T05:36:16.725Z,73.8
2018-08-17T05:37:17.003Z,73.4
2018-08-17T05:38:16.271Z,73.3
2018-08-17T05:39:16.587Z,72.8
2018-08-17T05:40:16.857Z,73.0
2018-08-17T05:41:16.913Z,73.2
2018-08-17T05:42:17.196Z,72.8
2018-08-17T05:43:16.466Z,72.8
2018-08-17T05:44:16.741Z,72.8
2018-08-17T05:45:17.015Z,72.9
2018-08-17T05:46:16.277Z,72.8
2018-08-17T05:47:16.554Z,72.8
2018-08-17T05:48:16.815Z,72.7
2018-08-17T05:49:17.081Z,72.2
2018-08-17T05:50:16.357Z,72.3
2018-08-17T05:51:16.389Z,72.0
2018-08-17T05:52:16.661Z,71.5
2018-08-17T05:53:16.934Z,71.4
2018-08-17T05:54:17.211Z,70.8
2018-08-17T05:55:16.500Z,70.6
2018-08-17T05:56:16.770Z,70.1
2018-08-17T05:57:17.070Z,70.2
2018-08-17T05:58:16.344Z,70.1
2018-08-17T05:59:16.620Z,69.7
2018-08-17T06:00:16.891Z,69.4
2018-08-17T06:01:16.953Z,69.5
2018-08-17T06:02:17.241Z,68.7
2018-08-17T06:03:16.510Z,68.6
2018-08-17T06:04:16.795Z,67.9
2018-08-17T06:05:17.072Z,67.0
2018-08-17T06:06:16.348Z,67.0
2018-08-17T06:07:16.630Z,67.6
2018-08-17T06:08:16.910Z,66.8
2018-08-17T06:09:17.186Z,66.8
2018-08-17T06:10:16.465Z,66.5
2018-08-17T06:11:16.775Z,66.5
2018-08-17T06:12:17.071Z,66.0
2018-08-17T06:13:16.345Z,65.9
2018-08-17T06:14:16.604Z,65.9
2018-08-17T06:15:16.868Z,65.8
2018-08-17T06:16:17.157Z,65.3
2018-08-17T06:17:16.432Z,65.0
2018-08-17T06:18:16.719Z,64.3
2018-08-17T06:19:17.277Z,64.3
2018-08-17T06:20:16.669Z,64.0
2018-08-17T06:21:16.707Z,63.6
2018-08-17T06:22:16.977Z,63.7
2018-08-17T06:23:17.266Z,64.2
2018-08-17T06:24:16.538Z,63.5
2018-08-17T06:25:16.820Z,63.4
2018-08-17T06:26:17.093Z,63.2
2018-08-17T06:27:16.355Z,63.4
2018-08-17T06:28:16.618Z,63.4
2018-08-17T06:29:16.890Z,63.5
2018-08-17T06:30:17.161Z,62.9
2018-08-17T06:31:17.217Z,63.0
2018-08-17T06:32:16.494Z,62.4
2018-08-17T06:33:16.760Z,62.1
2018-08-17T06:34:17.019Z,61.8
2018-08-17T06:35:16.286Z,60.5
2018-08-17T06:36:16.551Z,61.0
2018-08-17T06:37:17.161Z,60.1
2018-08-17T06:38:16.450Z,60.3
2018-08-17T06:39:16.719Z,59.6
2018-08-17T06:40:17.008Z,59.4
2018-08-17T06:41:17.043Z,58.8
2018-08-17T06:42:16.302Z,58.2
2018-08-17T06:43:16.576Z,58.2
2018-08-17T06:44:16.850Z,57.9
2018-08-17T06:45:17.123Z,56.9
2018-08-17T06:46:16.382Z,56.2
2018-08-17T06:47:16.649Z,56.0
2018-08-17T06:48:16.925Z,55.5
2018-08-17T06:49:17.199Z,55.4
2018-08-17T06:50:16.488Z,55.2
2018-08-17T06:51:16.519Z,54.8
2018-08-17T06:52:16.793Z,54.8
2018-08-17T06:53:17.067Z,54.1
2018-08-17T06:54:16.347Z,53.4
2018-08-17T06:55:16.620Z,52.5
2018-08-17T06:56:16.880Z,52.8
2018-08-17T06:57:17.376Z,52.7
2018-08-17T06:58:16.735Z,52.0
2018-08-17T06:59:17.007Z,52.3
2018-08-17T07:00:16.296Z,51.6
2018-08-17T07:01:16.345Z,52.3
2018-08-17T07:02:16.616Z,51.7
2018-08-17T07:03:16.884Z,52.0
2018-08-17T07:04:17.155Z,51.1
2018-08-17T07:05:16.428Z,51.0
2018-08-17T07:06:16.701Z,50.6
2018-08-17T07:07:16.968Z,49.7
2018-08-17T07:08:17.236Z,49.3
2018-08-17T07:09:16.909Z,47.5
2018-08-17T07:10:16.288Z,49.0
2018-08-17T07:11:16.300Z,48.2
2018-08-17T07:12:16.583Z,48.5
2018-08-17T07:13:16.848Z,47.7
2018-08-17T07:14:17.125Z,47.4
2018-08-17T07:15:16.411Z,45.6
2018-08-17T07:16:16.691Z,44.9
2018-08-17T07:17:16.964Z,43.9
2018-08-17T07:18:17.505Z,43.7
2018-08-17T07:19:16.779Z,44.0
2018-08-17T07:20:17.058Z,43.5
2018-08-17T07:21:17.122Z,43.5
2018-08-17T07:22:16.388Z,43.3
2018-08-17T07:23:16.659Z,44.2
2018-08-17T07:24:16.933Z,43.8
2018-08-17T07:25:17.200Z,43.5
2018-08-17T07:26:16.487Z,43.0
2018-08-17T07:27:16.762Z,43.0
2018-08-17T07:28:17.343Z,42.8
2018-08-17T07:29:16.770Z,42.2
2018-08-17T07:30:17.048Z,43.0
2018-08-17T07:31:17.102Z,42.2
2018-08-17T07:32:16.368Z,43.8
2018-08-17T07:33:16.640Z,42.5
2018-08-17T07:34:16.896Z,41.9
2018-08-17T07:35:17.178Z,43.5
2018-08-17T07:36:16.443Z,44.2
2018-08-17T07:37:16.706Z,44.1
2018-08-17T07:38:16.977Z,43.4
2018-08-17T07:39:17.236Z,42.0
2018-08-17T07:40:16.521Z,42.2
2018-08-17T07:41:16.561Z,41.6
2018-08-17T07:42:16.828Z,41.7
2018-08-17T07:43:17.093Z,40.9
2018-08-17T07:44:16.339Z,41.0
2018-08-17T07:45:16.610Z,41.5
2018-08-17T07:46:16.886Z,40.8
2018-08-17T07:47:17.157Z,41.5
2018-08-17T07:48:16.982Z,40.1
2018-08-17T07:49:16.382Z,40.3
2018-08-17T07:50:16.660Z,39.5
2018-08-17T07:51:16.671Z,40.0
2018-08-17T07:52:16.948Z,40.5
2018-08-17T07:53:17.231Z,40.2
2018-08-17T07:54:16.496Z,39.9
2018-08-17T07:55:16.760Z,39.4
2018-08-17T07:56:17.040Z,39.7
2018-08-17T07:57:16.308Z,40.5
2018-08-17T07:58:16.571Z,40.8
2018-08-17T07:59:16.832Z,41.1
2018-08-17T08:00:17.114Z,41.3
2018-08-17T08:01:17.155Z,40.5
2018-08-17T08:02:16.432Z,39.8
2018-08-17T08:03:16.699Z,39.6
2018-08-17T08:04:16.970Z,39.3
2018-08-17T08:05:17.238Z,38.8
2018-08-17T08:06:16.506Z,38.5
2018-08-17T08:07:16.773Z,39.0
2018-08-17T08:08:17.047Z,39.6
2018-08-17T08:09:16.317Z,40.0
2018-08-17T08:10:16.593Z,39.6
2018-08-17T08:11:16.639Z,38.6
2018-08-17T08:12:16.913Z,37.0
2018-08-17T08:13:17.189Z,37.6
2018-08-17T08:14:16.452Z,37.5
2018-08-17T08:15:16.720Z,37.8
2018-08-17T08:16:16.958Z,38.0
2018-08-17T08:17:17.227Z,38.0
2018-08-17T08:18:16.518Z,38.1
2018-08-17T08:19:16.774Z,39.0
2018-08-17T08:20:17.226Z,38.8
2018-08-17T08:21:17.082Z,38.8
2018-08-17T08:22:16.338Z,38.4
2018-08-17T08:23:16.612Z,38.2
2018-08-17T08:24:16.889Z,37.0
2018-08-17T08:25:17.176Z,37.2
2018-08-17T08:26:16.464Z,36.9
2018-08-17T08:27:16.734Z,36.5
2018-08-17T08:28:16.999Z,36.2
2018-08-17T08:29:16.272Z,36.1
2018-08-17T08:30:16.538Z,36.1
2018-08-17T08:31:16.605Z,38.0
2018-08-17T08:32:16.940Z,37.0
2018-08-17T08:33:17.226Z,37.0
2018-08-17T08:34:16.494Z,37.6
2018-08-17T08:35:16.776Z,36.9
2018-08-17T08:36:17.049Z,37.7
2018-08-17T08:37:16.312Z,37.0
2018-08-17T08:38:16.578Z,37.8
2018-08-17T08:39:16.838Z,36.6
2018-08-17T08:40:17.145Z,36.0
2018-08-17T08:41:17.164Z,34.9
2018-08-17T08:42:16.426Z,34.6
2018-08-17T08:43:16.686Z,33.6
2018-08-17T08:44:16.961Z,33.0
2018-08-17T08:45:17.223Z,33.5
2018-08-17T08:46:16.491Z,33.0
2018-08-17T08:47:16.756Z,34.4
2018-08-17T08:48:17.038Z,33.4
2018-08-17T08:49:16.302Z,32.7
2018-08-17T08:50:16.577Z,32.1
2018-08-17T08:51:16.607Z,31.6
2018-08-17T08:52:16.888Z,31.3
2018-08-17T08:53:17.473Z,31.5
2018-08-17T08:54:16.744Z,31.4
2018-08-17T08:55:17.011Z,31.7
2018-08-17T08:56:16.284Z,31.2
2018-08-17T08:57:16.576Z,31.3
2018-08-17T08:58:16.846Z,31.3
2018-08-17T08:59:17.115Z,31.6
2018-08-17T09:00:16.396Z,32.4
2018-08-17T09:01:16.454Z,31.9
2018-08-17T09:02:16.719Z,31.9
2018-08-17T09:03:16.982Z,32.5
2018-08-17T09:04:17.251Z,32.0
2018-08-17T09:05:16.551Z,31.5
2018-08-17T09:06:16.826Z,31.1
2018-08-17T09:07:17.092Z,30.1
2018-08-17T09:08:16.410Z,30.8
2018-08-17T09:09:16.690Z,31.1
2018-08-17T09:10:16.964Z,30.4
2018-08-17T09:11:17.037Z,29.8
2018-08-17T09:12:16.310Z,30.1
2018-08-17T09:13:16.573Z,28.8
2018-08-17T09:14:16.833Z,29.8
2018-08-17T09:15:17.101Z,30.2
2018-08-17T09:16:16.372Z,29.7
2018-08-17T09:17:16.644Z,29.8
2018-08-17T09:18:16.923Z,29.6
2018-08-17T09:19:17.181Z,29.6
2018-08-17T09:20:16.580Z,30.6
2018-08-17T09:21:16.498Z,31.7
2018-08-17T09:22:16.775Z,30.7
2018-08-17T09:23:17.045Z,30.8
2018-08-17T09:24:16.322Z,30.3
2018-08-17T09:25:16.591Z,30.4
2018-08-17T09:26:16.867Z,30.0
2018-08-17T09:27:17.152Z,29.9
2018-08-17T09:28:16.410Z,29.3
2018-08-17T09:29:16.825Z,30.5
2018-08-17T09:30:17.466Z,30.2
2018-08-17T09:31:17.237Z,29.8
2018-08-17T09:32:16.516Z,28.9
2018-08-17T09:33:16.789Z,29.1
2018-08-17T09:34:17.058Z,30.0
2018-08-17T09:35:16.337Z,29.3
2018-08-17T09:36:16.612Z,30.4
2018-08-17T09:37:16.879Z,30.6
2018-08-17T09:38:17.143Z,30.8
2018-08-17T09:39:16.413Z,30.5
2018-08-17T09:40:16.683Z,29.4
2018-08-17T09:41:16.739Z,29.2
2018-08-17T09:42:17.023Z,29.5
2018-08-17T09:43:16.296Z,29.2
2018-08-17T09:44:16.572Z,28.6
2018-08-17T09:45:16.837Z,28.5
2018-08-17T09:46:17.107Z,29.4
2018-08-17T09:47:16.382Z,28.7
2018-08-17T09:48:16.664Z,29.7
2018-08-17T09:49:16.937Z,30.6
2018-08-17T09:50:17.204Z,30.6
2018-08-17T09:51:16.351Z,29.9
2018-08-17T09:52:16.686Z,30.2
2018-08-17T09:53:16.952Z,30.0
2018-08-17T09:54:17.216Z,29.6
2018-08-17T09:55:16.485Z,29.1
2018-08-17T09:56:16.753Z,29.2
2018-08-17T09:57:17.038Z,28.9
2018-08-17T09:58:16.312Z,28.9
2018-08-17T09:59:16.901Z,27.9
2018-08-17T10:00:17.177Z,28.2
2018-08-17T10:01:17.212Z,28.0
2018-08-17T10:02:16.474Z,27.1
2018-08-17T10:03:16.750Z,27.2
2018-08-17T10:04:17.357Z,26.9
2018-08-17T10:05:16.671Z,26.9
2018-08-17T10:06:16.968Z,28.6
2018-08-17T10:07:17.240Z,29.0
2018-08-17T10:08:16.510Z,29.3
2018-08-17T10:09:16.791Z,29.9
2018-08-17T10:10:17.072Z,29.4
2018-08-17T10:11:17.136Z,29.0
2018-08-17T10:12:16.406Z,28.2
2018-08-17T10:13:16.673Z,27.9
2018-08-17T10:14:16.935Z,28.5
2018-08-17T10:15:17.223Z,29.1
2018-08-17T10:16:16.504Z,28.5
2018-08-17T10:17:16.771Z,27.8
2018-08-17T10:18:17.046Z,28.1
2018-08-17T10:19:16.315Z,28.4
2018-08-17T10:20:16.852Z,29.0
2018-08-17T10:21:17.204Z,28.7
2018-08-17T10:22:16.621Z,28.8
2018-08-17T10:23:16.904Z,29.0
2018-08-17T10:24:17.178Z,28.6
2018-08-17T10:25:16.451Z,28.2
2018-08-17T10:26:16.727Z,27.4
2018-08-17T10:27:17.000Z,26.8
2018-08-17T10:28:16.266Z,26.5
2018-08-17T10:29:16.542Z,26.8
2018-08-17T10:30:16.820Z,26.4
2018-08-17T10:31:16.885Z,26.3
2018-08-17T10:32:17.158Z,26.6
2018-08-17T10:33:16.430Z,25.8
2018-08-17T10:34:16.707Z,25.8
2018-08-17T10:35:16.978Z,25.9
2018-08-17T10:36:17.245Z,25.6
2018-08-17T10:37:16.512Z,26.8
2018-08-17T10:38:16.781Z,26.5
2018-08-17T10:39:17.053Z,26.1
2018-08-17T10:40:16.333Z,26.2
2018-08-17T10:41:16.379Z,25.9
2018-08-17T10:42:16.661Z,26.0
2018-08-17T10:43:16.922Z,25.4
2018-08-17T10:44:17.200Z,26.3
2018-08-17T10:45:16.473Z,26.5
2018-08-17T10:46:16.736Z,26.4
2018-08-17T10:47:17.015Z,27.2
2018-08-17T10:48:16.287Z,27.4
2018-08-17T10:49:16.921Z,26.9
2018-08-17T10:50:17.432Z,27.3
2018-08-17T10:51:16.270Z,27.4
2018-08-17T10:52:16.561Z,27.7
2018-08-17T10:53:16.831Z,27.8
2018-08-17T10:54:17.102Z,28.1
2018-08-17T10:55:16.366Z,27.7
2018-08-17T10:56:16.713Z,27.2
2018-08-17T10:57:17.061Z,27.4
2018-08-17T10:58:16.339Z,27.1
2018-08-17T10:59:16.613Z,27.4
2018-08-17T11:00:16.899Z,27.2
2018-08-17T11:01:16.952Z,27.1
2018-08-17T11:02:17.220Z,27.0
2018-08-17T11:03:16.489Z,26.6
2018-08-17T11:04:16.751Z,27.0
2018-08-17T11:05:17.022Z,27.2
2018-08-17T11:06:16.288Z,26.5
2018-08-17T11:07:16.573Z,26.6
2018-08-17T11:08:16.847Z,26.4
2018-08-17T11:09:17.112Z,26.5
2018-08-17T11:10:16.400Z,25.9
2018-08-17T11:11:16.437Z,25.7
2018-08-17T11:12:16.710Z,25.4
2018-08-17T11:13:16.975Z,25.1
2018-08-17T11:14:17.249Z,25.5
2018-08-17T11:15:16.533Z,25.6
2018-08-17T11:16:16.852Z,25.4
2018-08-17T11:17:17.130Z,25.9
2018-08-17T11:18:16.403Z,26.2
2018-08-17T11:19:16.683Z,26.8
2018-08-17T11:20:16.958Z,26.2
2018-08-17T11:21:17.011Z,26.2
2018-08-17T11:22:16.279Z,26.4
2018-08-17T11:23:16.550Z,26.1
2018-08-17T11:24:16.829Z,26.3
2018-08-17T11:25:17.108Z,26.5
2018-08-17T11:26:16.378Z,26.6
2018-08-17T11:27:16.648Z,26.1
2018-08-17T11:28:16.928Z,25.6
2018-08-17T11:29:17.204Z,25.8
2018-08-17T11:30:16.488Z,26.3
2018-08-17T11:31:16.541Z,25.9
2018-08-17T11:32:16.813Z,25.8
2018-08-17T11:33:17.092Z,25.6
2018-08-17T11:34:16.399Z,25.3
2018-08-17T11:35:16.684Z,25.0
2018-08-17T11:36:16.959Z,25.3
2018-08-17T11:37:17.225Z,25.2
2018-08-17T11:38:16.496Z,26.9
2018-08-17T11:39:16.770Z,26.4
2018-08-17T11:40:17.060Z,26.2
2018-08-17T11:41:17.172Z,27.0
2018-08-17T11:42:16.460Z,27.6
2018-08-17T11:43:16.732Z,27.4
2018-08-17T11:44:16.999Z,27.8
2018-08-17T11:45:16.269Z,27.8
2018-08-17T11:46:16.528Z,26.5
2018-08-17T11:47:16.804Z,25.7
2018-08-17T11:48:17.080Z,26.0
2018-08-17T11:49:16.349Z,26.2
2018-08-17T11:50:16.614Z,25.8
2018-08-17T11:51:16.687Z,26.1
2018-08-17T11:52:16.955Z,26.4
2018-08-17T11:53:17.226Z,25.9
2018-08-17T11:54:16.502Z,25.9
2018-08-17T11:55:16.773Z,25.8
2018-08-17T11:56:17.043Z,26.2
2018-08-17T11:57:16.315Z,26.0
2018-08-17T11:58:16.581Z,25.9
2018-08-17T11:59:16.849Z,26.2
2018-08-17T12:00:17.131Z,26.4
2018-08-17T12:01:17.229Z,26.4
2018-08-17T12:02:16.519Z,26.2
2018-08-17T12:03:16.783Z,25.7
2018-08-17T12:04:17.054Z,25.8
2018-08-17T12:05:16.327Z,26.2
2018-08-17T12:06:16.649Z,26.4
2018-08-17T12:07:16.933Z,26.0
2018-08-17T12:08:17.568Z,26.4
2018-08-17T12:09:16.929Z,26.8
2018-08-17T12:10:17.203Z,26.8
2018-08-17T12:11:16.271Z,27.5
2018-08-17T12:12:16.553Z,26.7
2018-08-17T12:13:16.826Z,26.3
2018-08-17T12:14:17.096Z,25.9
2018-08-17T12:15:16.378Z,26.1
2018-08-17T12:16:16.663Z,26.1
2018-08-17T12:17:17.213Z,26.7
2018-08-17T12:18:16.483Z,27.1
2018-08-17T12:19:16.791Z,26.8
2018-08-17T12:20:17.103Z,26.4
2018-08-17T12:21:17.138Z,25.9
2018-08-17T12:22:16.397Z,26.3
2018-08-17T12:23:16.669Z,26.0
2018-08-17T12:24:17.127Z,26.2
2018-08-17T12:25:16.468Z,26.4
2018-08-17T12:26:16.748Z,26.7
2018-08-17T12:27:17.016Z,26.8
2018-08-17T12:28:16.297Z,26.6
2018-08-17T12:29:16.568Z,27.1
2018-08-17T12:30:16.871Z,26.8
2018-08-17T12:31:16.905Z,27.9
2018-08-17T12:32:17.387Z,28.3
2018-08-17T12:33:16.812Z,27.0
2018-08-17T12:34:17.078Z,27.1
2018-08-17T12:35:16.368Z,26.8
2018-08-17T12:36:16.637Z,27.0
2018-08-17T12:37:16.915Z,26.9
2018-08-17T12:38:17.180Z,27.6
2018-08-17T12:39:16.452Z,26.9
2018-08-17T12:40:16.997Z,27.0
2018-08-17T12:41:16.783Z,26.4
2018-08-17T12:42:17.071Z,26.7
2018-08-17T12:43:16.346Z,26.8
2018-08-17T12:44:16.613Z,26.8
2018-08-17T12:45:16.896Z,26.9
2018-08-17T12:46:17.167Z,27.0
2018-08-17T12:47:16.426Z,26.9
2018-08-17T12:48:16.697Z,26.9
2018-08-17T12:49:16.970Z,26.9
2018-08-17T12:50:17.248Z,26.9
2018-08-17T12:51:16.293Z,26.5
2018-08-17T12:52:16.669Z,26.5
2018-08-17T12:53:16.993Z,26.5
2018-08-17T12:54:16.258Z,26.9
2018-08-17T12:55:16.531Z,27.0
2018-08-17T12:56:16.802Z,26.4
2018-08-17T12:57:17.069Z,26.4
2018-08-17T12:58:16.355Z,26.4
2018-08-17T12:59:16.620Z,26.3
2018-08-17T13:00:16.902Z,27.0
2018-08-17T13:01:16.925Z,26.4
2018-08-17T13:02:17.215Z,27.1
2018-08-17T13:03:16.482Z,27.1
2018-08-17T13:04:16.744Z,27.6
2018-08-17T13:05:17.019Z,27.2
2018-08-17T13:06:16.285Z,27.2
2018-08-17T13:07:16.567Z,27.8
2018-08-17T13:08:16.837Z,27.4
2018-08-17T13:09:17.125Z,27.4
2018-08-17T13:10:16.401Z,27.4
2018-08-17T13:11:16.469Z,27.2
2018-08-17T13:12:16.747Z,26.6
2018-08-17T13:13:17.021Z,26.9
2018-08-17T13:14:16.293Z,26.4
2018-08-17T13:15:16.567Z,26.4
2018-08-17T13:16:16.867Z,26.1
2018-08-17T13:17:17.384Z,26.6
2018-08-17T13:18:16.827Z,27.1